TVN weather

Trevelin Airport
Trevelin, Chubut Province, Argentina

Public forecast

Using degrees Celsius for public forecast. Weather courtesy of forecast.io.

METAR (pilot weather report)

Closest report is FutaleufĂș Airport, 17.4 nm (32.2 km) WSW. Retrieved 2019/04/22 22:00 UTC (24 minutes ago):

SCFT 222200Z AUTO 26004KT 210V290 CAVOK 11/05 Q1019

TAF (pilot weather forecast)

Forecast is more than 12 hours old.

Closest forecast is Brigadier Antonio Parodi Airport, 18.4 nm (34.1 km) NE. Retrieved 2019/04/15 06:04 UTC (8 days ago):

TAF SAVE 150500Z 1506/1606 27010KT 9999 SCT030 TX12/1518Z TNM01/1510Z BECMG 1518/1520 29010KT